Time;durP1;ratioP1;P1;durP2;ratioP2;P2;SDS_P1;SDS_P2;PMS_P1;PMS_P2;Temp;Humidity;BMP_temperature;BMP_pressure;BME280_temperature;BME280_humidity;BME280_pressure;Samples;Min_cycle;Max_cycle;Signal;HPM_P1;HPM_P2
2023/03/17 00:01:18;;;;;;;4.63;2.50;;;;;;;-148.88;73.09;76142.88;5033652;28;20057;-77
2023/03/17 00:03:46;;;;;;;6.20;2.80;;;;;;;-148.88;72.08;76132.72;5034035;28;20544;-77
2023/03/17 00:06:26;;;;;;;5.95;2.60;;;;;;;-148.88;72.44;76138.81;5033744;28;20480;-77
2023/03/17 00:08:52;;;;;;;5.53;2.25;;;;;;;-148.88;72.55;76134.72;5033906;28;20033;-77
2023/03/17 00:11:17;;;;;;;4.63;2.55;;;;;;;-148.88;72.27;76142.88;5016236;28;20029;-77
2023/03/17 00:13:44;;;;;;;6.72;2.85;;;;;;;-148.88;71.95;76136.78;5035533;28;20033;-77
2023/03/17 00:16:23;;;;;;;4.70;2.22;;;;;;;-148.88;71.98;76136.78;5015855;28;20484;-77
2023/03/17 00:18:49;;;;;;;6.22;2.40;;;;;;;-148.88;71.95;76140.84;5034277;28;20387;-77
2023/03/17 00:21:29;;;;;;;4.95;2.17;;;;;;;-148.88;72.02;76138.81;5015717;28;20032;-77
2023/03/17 00:23:56;;;;;;;5.47;2.22;;;;;;;-148.88;72.40;76142.88;5033409;28;20112;-77
2023/03/17 00:26:23;;;;;;;4.22;2.58;;;;;;;-148.88;71.98;76138.81;5033646;28;20025;-77
2023/03/17 00:28:49;;;;;;;8.70;2.75;;;;;;;-148.88;72.13;76126.59;5032991;28;20017;-77
2023/03/17 00:31:19;;;;;;;5.63;2.40;;;;;;;-148.88;71.65;76124.56;5015487;28;20542;-77
2023/03/17 00:33:45;;;;;;;3.97;1.98;;;;;;;-148.88;72.16;76140.84;5015387;28;20104;-77
2023/03/17 00:36:20;;;;;;;5.05;2.67;;;;;;;-148.88;72.65;76146.94;5033485;28;20056;-77
2023/03/17 00:38:45;;;;;;;5.82;2.33;;;;;;;-148.88;72.80;76146.94;5033218;28;20075;-77
2023/03/17 00:41:11;;;;;;;4.50;2.13;;;;;;;-148.88;73.64;76163.19;5033178;28;20029;-77
2023/03/17 00:43:37;;;;;;;5.15;2.50;;;;;;;-148.88;73.81;76155.06;5033427;28;20025;-77
2023/03/17 00:46:15;;;;;;;5.18;2.60;;;;;;;-148.88;74.07;76159.13;5015335;28;20028;-77
2023/03/17 00:48:42;;;;;;;4.57;2.13;;;;;;;-148.88;74.14;76159.13;5015631;28;20032;-77
2023/03/17 00:51:08;;;;;;;5.75;2.38;;;;;;;-148.88;73.84;76148.97;5033129;28;20097;-77
2023/03/17 00:53:33;;;;;;;4.53;2.50;;;;;;;-148.88;73.84;76144.91;5033121;28;20025;-77
2023/03/17 00:55:59;;;;;;;6.15;2.67;;;;;;;-148.88;73.47;76140.84;5032912;28;20029;-78
2023/03/17 00:58:27;;;;;;;3.65;2.20;;;;;;;-148.88;73.62;76138.81;5033036;28;20095;-77
2023/03/17 01:00:54;;;;;;;4.70;2.35;;;;;;;-148.88;73.66;76130.69;5033035;28;20036;-77
2023/03/17 01:03:20;;;;;;;5.60;2.95;;;;;;;-148.88;74.04;76155.06;5033097;28;20048;-76
2023/03/17 01:05:47;;;;;;;10.05;3.83;;;;;;;-148.88;74.11;76159.13;5032759;28;20021;-77
2023/03/17 01:08:12;;;;;;;10.40;4.32;;;;;;;-148.88;74.31;76151.00;5032627;28;20495;-77
2023/03/17 01:10:38;;;;;;;6.25;2.65;;;;;;;-148.88;74.65;76161.16;5015051;28;20074;-77
2023/03/17 01:13:04;;;;;;;8.20;3.22;;;;;;;-148.88;73.66;76153.03;5014861;28;20026;-77
2023/03/17 01:15:31;;;;;;;10.43;3.85;;;;;;;-148.88;74.03;76159.13;5032853;28;20088;-77
2023/03/17 01:17:58;;;;;;;4.65;2.63;;;;;;;-148.88;73.70;76157.09;5032753;28;20025;-77
2023/03/17 01:20:29;;;;;;;7.72;2.90;;;;;;;-148.88;73.63;76155.06;5032869;28;20025;-77
2023/03/17 01:22:54;;;;;;;7.05;2.42;;;;;;;-148.88;73.50;76163.19;5032920;28;20543;-78
2023/03/17 01:25:20;;;;;;;9.90;3.20;;;;;;;-148.88;74.19;76163.19;5036510;28;20053;-77
2023/03/17 01:27:46;;;;;;;8.15;2.45;;;;;;;-148.88;74.88;76187.56;5032679;28;20365;-77
2023/03/17 01:30:20;;;;;;;6.22;2.55;;;;;;;-148.88;75.09;76187.56;5033184;28;20105;-77
2023/03/17 01:32:46;;;;;;;6.93;2.75;;;;;;;-148.88;75.28;76203.81;5033530;28;20025;-77
2023/03/17 01:35:12;;;;;;;16.80;4.90;;;;;;;-148.88;75.33;76209.91;5033259;28;20100;-77
2023/03/17 01:37:38;;;;;;;7.72;2.65;;;;;;;-148.88;75.76;76211.94;5032554;28;20522;-77
2023/03/17 01:40:11;;;;;;;5.82;2.70;;;;;;;-148.88;75.93;76216.00;5032956;28;20037;-77
2023/03/17 01:42:38;;;;;;;6.03;2.75;;;;;;;-148.88;76.29;76222.09;5018113;28;20071;-77
2023/03/17 01:45:07;;;;;;;5.47;2.40;;;;;;;-148.88;75.70;76207.88;5018564;28;20033;-77
2023/03/17 01:47:33;;;;;;;7.32;3.30;;;;;;;-148.88;75.26;76195.69;5018437;28;20391;-77
2023/03/17 01:50:05;;;;;;;5.40;1.90;;;;;;;-148.88;75.23;76203.81;5018529;28;20029;-77
2023/03/17 01:52:34;;;;;;;4.63;2.38;;;;;;;-148.88;74.97;76187.56;5018434;28;20013;-77
2023/03/17 01:55:05;;;;;;;4.82;2.42;;;;;;;-148.88;75.41;76195.69;5036129;28;20032;-77
2023/03/17 01:57:38;;;;;;;5.68;2.60;;;;;;;-148.88;75.32;76199.75;5036136;28;20096;-77
2023/03/17 02:00:08;;;;;;;5.15;2.38;;;;;;;-148.88;74.77;76187.56;5036612;28;20068;-77
2023/03/17 02:02:37;;;;;;;8.95;2.90;;;;;;;-148.88;75.25;76183.50;5036320;28;20064;-77
2023/03/17 02:05:05;;;;;;;5.78;2.75;;;;;;;-148.88;75.60;76197.72;5036245;28;20029;-77
2023/03/17 02:07:31;;;;;;;6.30;2.95;;;;;;;-148.88;76.21;76211.94;5035791;28;20558;-77
2023/03/17 02:09:57;;;;;;;5.85;2.60;;;;;;;-148.88;76.10;76211.94;5018241;28;20235;-77
2023/03/17 02:12:24;;;;;;;5.03;2.38;;;;;;;-148.88;76.52;76222.09;5048750;22;20037;-77
2023/03/17 02:14:50;;;;;;;5.45;2.42;;;;;;;-148.88;77.18;76236.31;5035986;28;20033;-77
2023/03/17 02:17:17;;;;;;;5.85;2.97;;;;;;;-148.88;77.58;76244.44;5018009;28;20021;-77
2023/03/17 02:19:42;;;;;;;5.93;2.53;;;;;;;-148.88;77.56;76240.38;5018215;28;20076;-77
2023/03/17 02:22:08;;;;;;;5.57;2.20;;;;;;;-148.88;77.68;76244.44;5017828;28;20022;-77
2023/03/17 02:24:38;;;;;;;5.05;2.17;;;;;;;-148.88;78.30;76246.47;5065310;22;20043;-86
2023/03/17 02:27:10;;;;;;;4.60;2.80;;;;;;;-148.88;78.55;76252.56;5035935;28;20104;-87
2023/03/17 02:29:36;;;;;;;4.30;2.55;;;;;;;-148.88;78.87;76258.66;5017941;28;20116;-87
2023/03/17 02:32:03;;;;;;;5.70;2.85;;;;;;;-148.88;78.48;76252.56;5035981;28;20056;-86
2023/03/17 02:34:28;;;;;;;5.93;2.80;;;;;;;-148.88;78.83;76264.75;5035475;28;20028;-87
2023/03/17 02:36:54;;;;;;;7.45;2.58;;;;;;;-148.88;78.95;76262.72;5017723;28;20021;-87
2023/03/17 02:39:19;;;;;;;4.15;2.15;;;;;;;-148.88;78.57;76264.75;5035371;28;20025;-86
2023/03/17 02:41:45;;;;;;;5.53;2.30;;;;;;;-148.88;78.64;76264.75;5035520;28;20105;-86
2023/03/17 02:44:10;;;;;;;6.05;2.55;;;;;;;-148.88;78.23;76266.78;5035520;28;20045;-86
2023/03/17 02:46:35;;;;;;;7.28;2.83;;;;;;;-148.88;77.88;76248.50;5035249;28;20029;-86
2023/03/17 02:49:01;;;;;;;5.72;2.53;;;;;;;-148.88;77.41;76252.56;5035330;28;20045;-86
2023/03/17 02:51:27;;;;;;;3.83;2.20;;;;;;;-148.88;77.45;76258.66;5035151;28;20372;-87
2023/03/17 02:53:52;;;;;;;5.35;2.38;;;;;;;-148.88;78.05;76252.56;5035015;28;20105;-86
2023/03/17 02:56:17;;;;;;;5.43;2.50;;;;;;;-148.88;77.86;76248.50;5035094;28;20483;-86
2023/03/17 02:58:43;;;;;;;5.40;2.40;;;;;;;-148.88;77.16;76240.38;5035045;28;20022;-86
2023/03/17 03:01:09;;;;;;;6.00;2.75;;;;;;;-148.88;78.16;76242.41;5035279;28;20471;-86
2023/03/17 03:03:35;;;;;;;7.60;2.53;;;;;;;-148.88;77.81;76232.25;5017412;28;20018;-87
2023/03/17 03:06:00;;;;;;;7.47;2.42;;;;;;;-148.88;78.68;76248.50;5035565;28;20030;-86
2023/03/17 03:08:26;;;;;;;7.05;2.50;;;;;;;-148.88;78.35;76234.28;5034867;28;20108;-86
2023/03/17 03:10:52;;;;;;;5.60;2.47;;;;;;;-148.88;78.45;76220.06;5035659;28;20103;-87
2023/03/17 03:13:17;;;;;;;4.90;2.30;;;;;;;-148.88;78.41;76230.22;5034828;28;20499;-86
2023/03/17 03:15:42;;;;;;;5.47;2.47;;;;;;;-148.88;77.56;76230.22;5034595;28;20025;-86
2023/03/17 03:18:08;;;;;;;6.32;2.63;;;;;;;-148.88;77.40;76216.00;5034723;28;20120;-86
2023/03/17 03:20:34;;;;;;;6.32;2.65;;;;;;;-148.88;77.01;76209.91;5034649;28;20029;-87
2023/03/17 03:22:59;;;;;;;5.75;2.42;;;;;;;-148.88;76.67;76218.03;5034428;28;20083;-86
2023/03/17 03:25:24;;;;;;;5.40;2.65;;;;;;;-148.88;77.04;76209.91;5034688;28;20044;-87
2023/03/17 03:27:50;;;;;;;5.68;2.58;;;;;;;-148.88;77.29;76216.00;5034708;28;20491;-86
2023/03/17 03:30:15;;;;;;;10.02;2.42;;;;;;;-148.88;77.41;76222.09;5034453;28;20021;-86
2023/03/17 03:32:41;;;;;;;4.72;2.60;;;;;;;-148.88;77.27;76216.00;5034441;28;20472;-87
2023/03/17 03:35:07;;;;;;;4.25;2.35;;;;;;;-148.88;76.95;76216.00;5034788;28;20037;-86
2023/03/17 03:37:32;;;;;;;5.50;2.58;;;;;;;-148.88;77.48;76222.09;5034496;28;20108;-86
2023/03/17 03:39:57;;;;;;;5.38;2.40;;;;;;;-148.88;77.53;76232.25;5034375;28;20121;-85
2023/03/17 03:42:23;;;;;;;6.22;2.80;;;;;;;-148.88;77.93;76232.25;5016365;28;20060;-86
2023/03/17 03:44:48;;;;;;;4.55;2.63;;;;;;;-148.88;77.39;76232.25;5034062;28;20038;-86
2023/03/17 03:47:13;;;;;;;5.35;2.50;;;;;;;-148.88;76.98;76230.22;5017298;28;20476;-86
2023/03/17 03:49:38;;;;;;;5.25;2.38;;;;;;;-148.88;76.94;76234.28;5034232;28;20032;-86
2023/03/17 03:52:04;;;;;;;5.90;2.92;;;;;;;-148.88;77.05;76226.16;5016977;28;20036;-86
2023/03/17 03:54:29;;;;;;;7.32;2.70;;;;;;;-148.88;77.09;76232.25;5034021;28;20400;-85
2023/03/17 03:56:55;;;;;;;6.50;2.63;;;;;;;-148.88;77.45;76224.13;5033870;28;20377;-87
2023/03/17 03:59:20;;;;;;;6.88;3.00;;;;;;;-148.88;77.41;76228.19;5016280;28;20048;-86
2023/03/17 04:01:45;;;;;;;6.25;3.15;;;;;;;-148.88;77.26;76228.19;5034109;28;20022;-87
2023/03/17 04:04:10;;;;;;;5.97;3.17;;;;;;;-148.88;76.76;76228.19;5033393;28;20057;-86
2023/03/17 04:06:39;;;;;;;8.63;3.00;;;;;;;-148.88;76.76;76224.13;5033968;28;20031;-87
2023/03/17 04:09:04;;;;;;;5.60;2.70;;;;;;;-148.88;76.65;76230.22;5033826;28;20040;-89
2023/03/17 04:11:29;;;;;;;4.10;2.25;;;;;;;-148.88;76.20;76230.22;5034394;28;20029;-89
2023/03/17 04:13:55;;;;;;;7.07;2.85;;;;;;;-148.88;77.15;76240.38;5033722;28;20027;-89
2023/03/17 04:16:20;;;;;;;5.55;2.63;;;;;;;-148.88;76.67;76236.31;5033743;28;20026;-88
2023/03/17 04:18:45;;;;;;;5.05;2.53;;;;;;;-148.88;76.99;76242.41;5033710;28;20025;-88
2023/03/17 04:21:12;;;;;;;6.88;3.15;;;;;;;-148.88;77.07;76248.50;5033626;28;20108;-89
2023/03/17 04:23:37;;;;;;;5.15;2.42;;;;;;;-148.88;77.59;76256.63;5033551;28;20018;-90
2023/03/17 04:26:03;;;;;;;8.30;2.35;;;;;;;-148.88;77.54;76264.75;5016117;28;20087;-88
2023/03/17 04:28:29;;;;;;;5.60;2.88;;;;;;;-148.88;77.56;76264.75;5033616;28;20025;-90
2023/03/17 04:30:55;;;;;;;6.82;2.83;;;;;;;-148.88;78.39;76264.75;5015724;28;20036;-90
2023/03/17 04:33:20;;;;;;;6.03;2.75;;;;;;;-148.88;79.00;76268.81;5020392;28;20494;-91
2023/03/17 04:35:45;;;;;;;5.63;2.60;;;;;;;-148.88;78.97;76272.88;5045496;28;20394;-90
2023/03/17 04:38:12;;;;;;;5.10;2.53;;;;;;;-148.88;79.25;76274.91;5038932;28;20527;-89
2023/03/17 04:40:38;;;;;;;6.07;2.80;;;;;;;-148.88;79.71;76289.13;5044323;28;20025;-90
2023/03/17 04:43:05;;;;;;;6.45;2.70;;;;;;;-148.88;79.94;76274.91;5044678;28;20108;-90
2023/03/17 04:45:31;;;;;;;5.60;2.67;;;;;;;-148.88;79.55;76272.88;5016632;28;20116;-90
2023/03/17 04:47:56;;;;;;;6.68;3.08;;;;;;;-148.88;79.71;76276.94;5016616;28;20057;-88
2023/03/17 04:50:21;;;;;;;8.00;3.05;;;;;;;-148.88;79.64;76272.88;5033516;28;20029;-89
2023/03/17 04:52:47;;;;;;;6.13;2.83;;;;;;;-148.88;79.72;76274.91;5033383;28;20028;-87
2023/03/17 04:55:15;;;;;;;6.22;3.20;;;;;;;-148.88;79.58;76278.97;5033344;28;20429;-88
2023/03/17 04:57:43;;;;;;;6.63;3.20;;;;;;;-148.88;79.55;76276.94;5015794;28;20387;-88
2023/03/17 05:00:11;;;;;;;5.03;2.90;;;;;;;-148.88;79.36;76266.78;5033378;28;20025;-88
2023/03/17 05:02:37;;;;;;;5.32;2.85;;;;;;;-148.88;79.64;76258.66;5033044;28;20109;-87
2023/03/17 05:05:03;;;;;;;7.95;2.83;;;;;;;-148.88;79.91;76285.06;5033003;28;20029;-88
2023/03/17 05:07:29;;;;;;;8.18;3.08;;;;;;;-148.88;80.57;76295.22;5032625;28;20108;-88
2023/03/17 05:09:55;;;;;;;6.22;2.95;;;;;;;-148.88;80.87;76289.13;5033987;28;20048;-90
2023/03/17 05:12:21;;;;;;;7.30;3.50;;;;;;;-148.88;80.82;76287.09;5016015;28;20021;-89
2023/03/17 05:14:46;;;;;;;8.52;2.88;;;;;;;-148.88;80.84;76289.13;5032915;28;20227;-88
2023/03/17 05:17:12;;;;;;;7.68;3.47;;;;;;;-148.88;80.96;76293.19;5035726;28;20060;-87
2023/03/17 05:19:38;;;;;;;6.63;3.33;;;;;;;-148.88;80.60;76283.03;5037703;28;20028;-87
2023/03/17 05:22:03;;;;;;;5.13;2.75;;;;;;;-148.88;80.43;76268.81;5037140;28;20438;-89
2023/03/17 05:24:28;;;;;;;6.03;2.88;;;;;;;-148.88;80.21;76258.66;5037490;28;20053;-87
2023/03/17 05:26:54;;;;;;;6.85;3.13;;;;;;;-148.88;79.93;76268.81;5037270;28;20030;-87
2023/03/17 05:29:19;;;;;;;8.23;3.17;;;;;;;-148.88;80.25;76281.00;5036931;28;20029;-88
2023/03/17 05:31:44;;;;;;;7.18;2.80;;;;;;;-148.88;80.85;76281.00;5038881;28;20484;-87
2023/03/17 05:34:10;;;;;;;7.63;3.30;;;;;;;-148.88;80.57;76276.94;5036791;28;20034;-88
2023/03/17 05:36:36;;;;;;;6.18;3.25;;;;;;;-148.88;80.87;76281.00;5036754;28;20029;-88
2023/03/17 05:39:02;;;;;;;4.43;2.75;;;;;;;-148.88;80.50;76272.88;5037012;28;20541;-87
2023/03/17 05:41:28;;;;;;;7.10;3.10;;;;;;;-148.88;80.77;76285.06;5037174;28;20025;-87
2023/03/17 05:43:53;;;;;;;5.38;2.75;;;;;;;-148.88;80.51;76274.91;5036736;28;20025;-88
2023/03/17 05:46:18;;;;;;;8.35;3.35;;;;;;;-148.88;81.19;76285.06;5037180;28;20025;-88
2023/03/17 05:48:44;;;;;;;5.70;2.88;;;;;;;-148.88;81.04;76281.00;5036796;28;20037;-88
2023/03/17 05:51:09;;;;;;;6.20;2.75;;;;;;;-148.88;80.88;76276.94;5036912;28;20108;-87
2023/03/17 05:53:37;;;;;;;5.90;3.10;;;;;;;-148.88;80.33;76270.84;5037065;28;20025;-89
2023/03/17 05:56:04;;;;;;;5.43;2.83;;;;;;;-148.88;80.27;76256.63;5036539;28;20026;-89
2023/03/17 05:58:29;;;;;;;4.07;2.38;;;;;;;-148.88;80.08;76252.56;5036756;28;20108;-88
2023/03/17 06:00:55;;;;;;;7.70;3.13;;;;;;;-148.88;80.06;76256.63;5036676;28;20108;-88
2023/03/17 06:03:21;;;;;;;6.00;2.97;;;;;;;-148.88;80.34;76256.63;5036869;28;20028;-88
2023/03/17 06:05:46;;;;;;;5.70;2.92;;;;;;;-148.88;80.02;76256.63;5036338;28;20036;-87
2023/03/17 06:08:12;;;;;;;6.63;2.97;;;;;;;-148.88;80.16;76242.41;5036808;28;20022;-88
2023/03/17 06:10:38;;;;;;;4.45;3.08;;;;;;;-148.88;80.17;76236.31;5018727;28;20446;-87
2023/03/17 06:13:03;;;;;;;6.75;2.88;;;;;;;-148.88;79.97;76240.38;5036592;28;20090;-90
2023/03/17 06:15:28;;;;;;;6.60;3.33;;;;;;;-148.88;79.32;76236.31;5035915;28;20049;-87
2023/03/17 06:17:54;;;;;;;7.38;2.72;;;;;;;-148.88;79.56;76224.13;5018385;28;20025;-89
2023/03/17 06:20:19;;;;;;;7.00;3.33;;;;;;;-148.88;79.15;76218.03;5019469;28;20108;-87
2023/03/17 06:22:45;;;;;;;5.78;3.00;;;;;;;-148.88;78.20;76195.69;5018379;28;20021;-87
2023/03/17 06:25:10;;;;;;;8.65;3.33;;;;;;;-148.88;78.19;76191.63;5018498;28;20025;-87
2023/03/17 06:27:36;;;;;;;6.10;3.30;;;;;;;-148.88;77.90;76181.47;5018545;28;20112;-87
2023/03/17 06:30:03;;;;;;;6.57;3.35;;;;;;;-148.88;77.78;76179.44;5018066;28;20025;-88
2023/03/17 06:32:29;;;;;;;6.78;3.15;;;;;;;-148.88;77.83;76179.44;5035831;28;20053;-88
2023/03/17 06:34:54;;;;;;;5.63;3.22;;;;;;;-148.88;77.66;76175.38;5018083;28;20049;-87
2023/03/17 06:37:20;;;;;;;6.13;3.28;;;;;;;-148.88;77.76;76165.22;5035797;28;20021;-87
2023/03/17 06:39:46;;;;;;;7.85;3.35;;;;;;;-148.88;76.83;76155.06;5035779;28;20028;-87
2023/03/17 06:42:12;;;;;;;6.53;3.10;;;;;;;-148.88;77.11;76144.91;5035469;28;20029;-88
2023/03/17 06:44:37;;;;;;;8.85;3.10;;;;;;;-148.88;77.06;76142.88;5035595;28;20100;-88
2023/03/17 06:47:03;;;;;;;8.52;3.33;;;;;;;-148.88;76.99;76124.56;5035609;28;20475;-87
2023/03/17 06:49:29;;;;;;;9.68;3.92;;;;;;;-148.88;76.65;76118.47;5035899;28;20161;-86
2023/03/17 06:51:54;;;;;;;6.25;3.45;;;;;;;-148.88;76.18;76110.34;5017941;28;20072;-87
2023/03/17 06:54:22;;;;;;;6.40;3.67;;;;;;;-148.88;76.39;76116.44;5035762;28;20025;-88
2023/03/17 06:56:48;;;;;;;6.40;3.42;;;;;;;-148.88;76.60;76118.47;5017517;28;20033;-89
2023/03/17 06:59:13;;;;;;;5.97;3.15;;;;;;;-148.88;75.63;76124.56;5035258;28;20029;-89
2023/03/17 07:01:39;;;;;;;5.75;3.13;;;;;;;-148.88;75.62;76118.47;5035573;28;20024;-88
2023/03/17 07:04:05;;;;;;;8.77;3.63;;;;;;;-148.88;75.58;76104.25;5018328;28;20034;-88
2023/03/17 07:06:31;;;;;;;8.50;3.72;;;;;;;-148.88;75.30;76090.03;5035215;28;20033;-89
2023/03/17 07:08:57;;;;;;;8.38;3.92;;;;;;;-148.88;74.70;76073.78;5016987;28;20037;-89
2023/03/17 07:11:22;;;;;;;9.80;4.45;;;;;;;-148.88;73.50;76065.66;5035571;28;20036;-88
2023/03/17 07:13:48;;;;;;;6.30;3.42;;;;;;;-148.88;72.85;76049.41;5017410;28;20048;-88
2023/03/17 07:16:15;;;;;;;5.68;3.08;;;;;;;-148.88;72.57;76053.47;5035066;28;20032;-88
2023/03/17 07:18:41;;;;;;;7.65;3.45;;;;;;;-148.88;72.71;76041.28;5017724;28;20489;-88
2023/03/17 07:21:06;;;;;;;6.93;3.10;;;;;;;-148.88;72.14;76037.22;5034951;28;20033;-88
2023/03/17 07:23:32;;;;;;;8.60;3.35;;;;;;;-148.88;72.32;76031.13;5034878;28;20526;-89
2023/03/17 07:25:57;;;;;;;6.40;3.33;;;;;;;-148.88;72.60;76029.09;5035365;28;20025;-89
2023/03/17 07:28:23;;;;;;;6.55;2.75;;;;;;;-148.88;72.34;76023.00;5016950;28;20036;-88
2023/03/17 07:30:49;;;;;;;8.63;3.38;;;;;;;-148.88;72.73;75998.63;5034788;28;20618;-88
2023/03/17 07:33:16;;;;;;;8.85;4.13;;;;;;;-148.88;72.27;75996.59;5017821;28;20024;-89
2023/03/17 07:35:43;;;;;;;6.82;3.45;;;;;;;-148.88;72.09;75984.41;5016849;28;20024;-89
2023/03/17 07:38:12;;;;;;;6.80;3.10;;;;;;;-148.88;71.44;75968.16;5034464;28;20039;-89
2023/03/17 07:40:37;;;;;;;7.38;3.20;;;;;;;-148.88;71.47;75960.03;5016389;28;20152;-88
2023/03/17 07:43:03;;;;;;;6.57;3.40;;;;;;;-148.88;71.49;75947.84;5034308;28;20067;-88
2023/03/17 07:45:28;;;;;;;9.48;3.92;;;;;;;-148.88;70.75;75931.59;5034548;28;20026;-89
2023/03/17 07:47:54;;;;;;;7.40;3.83;;;;;;;-148.88;69.61;75925.50;5016522;28;20105;-88
2023/03/17 07:50:19;;;;;;;5.85;3.30;;;;;;;-148.88;69.70;75915.34;5034895;28;20377;-88
2023/03/17 07:52:45;;;;;;;6.72;3.25;;;;;;;-148.88;69.46;75911.28;5034510;28;20482;-88
2023/03/17 07:55:11;;;;;;;6.80;3.60;;;;;;;-148.88;69.59;75890.97;5034524;28;20033;-88
2023/03/17 07:57:37;;;;;;;10.05;3.72;;;;;;;-148.88;69.10;75870.66;5034483;28;20029;-89
2023/03/17 08:00:09;;;;;;;6.20;3.00;;;;;;;-148.88;68.14;75815.81;5016163;28;20034;-89
2023/03/17 08:02:36;;;;;;;6.82;3.55;;;;;;;-148.88;65.96;75783.31;5016441;28;20021;-89
2023/03/17 08:05:03;;;;;;;7.68;3.53;;;;;;;-148.88;63.70;75787.38;5034491;28;20302;-88
2023/03/17 08:07:30;;;;;;;6.13;2.80;;;;;;;-148.88;64.11;75781.28;5016573;28;20029;-87
2023/03/17 08:09:56;;;;;;;6.20;3.42;;;;;;;-148.88;63.75;75793.47;5016643;28;20112;-89
2023/03/17 08:12:22;;;;;;;5.00;2.70;;;;;;;-148.88;62.97;75777.22;5034145;28;20095;-89
2023/03/17 08:14:47;;;;;;;5.90;3.08;;;;;;;-148.88;63.57;75769.09;5034137;28;20045;-89
2023/03/17 08:17:12;;;;;;;8.63;3.45;;;;;;;-148.88;63.88;75771.13;5034310;28;20029;-88
2023/03/17 08:19:38;;;;;;;6.78;3.42;;;;;;;-148.88;64.48;75752.84;5016553;28;20022;-89
2023/03/17 08:22:03;;;;;;;6.72;3.22;;;;;;;-148.88;63.53;75734.56;5033604;28;20420;-89
2023/03/17 08:24:29;;;;;;;6.90;3.30;;;;;;;-148.88;62.94;75720.34;5033807;28;20112;-89
2023/03/17 08:26:54;;;;;;;5.57;2.83;;;;;;;-148.88;63.67;75683.78;5033938;28;20029;-89
2023/03/17 08:29:19;;;;;;;4.93;2.65;;;;;;;-148.88;62.52;75671.59;5033628;28;20444;-89
2023/03/17 08:31:45;;;;;;;5.93;2.90;;;;;;;-148.88;61.89;75663.47;5033698;28;20377;-88
2023/03/17 08:34:10;;;;;;;4.97;2.75;;;;;;;-148.88;60.88;75663.47;5033468;28;20029;-90
2023/03/17 08:36:36;;;;;;;7.38;3.78;;;;;;;-148.88;60.58;75665.50;5033470;28;20032;-89
2023/03/17 08:39:03;;;;;;;5.75;2.83;;;;;;;-148.88;59.83;75649.25;5015753;28;20033;-88
2023/03/17 08:41:28;;;;;;;7.70;3.08;;;;;;;-148.88;59.78;75641.13;5033656;28;20035;-89
2023/03/17 08:43:54;;;;;;;5.47;3.10;;;;;;;-148.88;59.96;75618.78;5033207;28;20022;-89
2023/03/17 08:46:27;;;;;;;5.75;3.88;;;;;;;-148.88;60.24;75596.44;5033635;28;20443;-89
2023/03/17 08:48:55;;;;;;;6.82;3.17;;;;;;;-148.88;59.13;75594.44;5033694;28;20392;-89
2023/03/17 08:51:23;;;;;;;7.03;3.40;;;;;;;-148.88;59.20;75576.13;5033372;28;20056;-89
2023/03/17 08:53:49;;;;;;;6.25;2.78;;;;;;;-148.88;58.14;75576.13;5016376;28;20472;-88
2023/03/17 08:56:15;;;;;;;5.90;3.80;;;;;;;-148.88;58.52;75539.59;5015738;28;20025;-89
2023/03/17 08:58:41;;;;;;;5.47;3.83;;;;;;;-148.88;58.20;75533.50;5015530;28;20021;-89
2023/03/17 09:01:08;;;;;;;5.05;3.00;;;;;;;-148.88;57.89;75517.25;5033161;28;20025;-89
2023/03/17 09:03:33;;;;;;;7.22;2.67;;;;;;;-148.88;56.54;75511.16;5033096;28;20021;-89
2023/03/17 09:05:59;;;;;;;5.90;3.80;;;;;;;-148.88;56.52;75492.88;5015310;28;20029;-89
2023/03/17 09:08:26;;;;;;;7.05;3.92;;;;;;;-148.88;56.54;75480.69;5033249;28;20030;-89
2023/03/17 09:10:52;;;;;;;5.00;3.58;;;;;;;-148.88;56.45;75464.44;5015290;28;20120;-89
2023/03/17 09:13:18;;;;;;;5.10;3.13;;;;;;;-148.88;55.23;75462.41;5033443;28;20105;-88
2023/03/17 09:15:46;;;;;;;5.20;2.58;;;;;;;-148.88;55.00;75452.25;5032865;28;20026;-89
2023/03/17 09:18:13;;;;;;;5.43;3.80;;;;;;;-148.88;55.43;75427.88;5015625;28;20156;-90
2023/03/17 09:20:39;;;;;;;6.30;3.90;;;;;;;-148.88;55.23;75419.75;5032960;28;20445;-89
2023/03/17 09:23:08;;;;;;;6.25;3.60;;;;;;;-148.88;54.81;75397.41;5033351;28;20079;-90
2023/03/17 09:25:38;;;;;;;5.82;3.70;;;;;;;-148.88;56.02;75375.06;5033176;28;20041;-89
2023/03/17 09:28:04;;;;;;;5.60;3.20;;;;;;;-148.88;53.53;75371.00;5033063;28;20075;-89
2023/03/17 09:30:30;;;;;;;7.13;3.30;;;;;;;-148.88;54.42;75334.44;5032835;28;20373;-89
2023/03/17 09:32:55;;;;;;;5.13;3.20;;;;;;;-148.88;53.27;75310.06;5032893;28;20049;-90
2023/03/17 09:35:21;;;;;;;4.95;2.80;;;;;;;-148.88;50.56;75275.56;5032859;28;20037;-90
2023/03/17 09:37:47;;;;;;;4.55;2.80;;;;;;;-148.88;49.19;75228.84;5032765;28;20500;-90
2023/03/17 09:40:16;;;;;;;3.97;2.63;;;;;;;-148.88;49.49;75204.47;5015138;28;20021;-89
2023/03/17 09:43:06;;;;;;;4.63;2.45;;;;;;;-148.88;47.78;75171.97;5032529;28;20022;-89
2023/03/17 09:45:37;;;;;;;4.25;2.25;;;;;;;-148.88;47.25;75163.84;5032733;28;20049;-89
2023/03/17 09:48:36;;;;;;;3.53;2.53;;;;;;;-148.88;48.06;75131.34;5032986;28;20026;-90
2023/03/17 09:51:05;;;;;;;4.60;2.50;;;;;;;-148.88;46.93;75062.31;5032684;28;20021;-89
2023/03/17 09:53:35;;;;;;;4.05;2.67;;;;;;;-148.88;45.95;75062.31;5032550;28;20113;-89
2023/03/17 09:56:33;;;;;;;4.88;2.85;;;;;;;-148.88;44.55;75066.38;5032513;28;20021;-89
2023/03/17 09:59:04;;;;;;;5.63;2.47;;;;;;;-148.88;44.67;75058.25;5032684;28;20033;-88
2023/03/17 10:01:29;;;;;;;5.80;2.50;;;;;;;-148.88;44.43;75050.13;5032626;28;20547;-87
2023/03/17 10:03:55;;;;;;;5.30;2.20;;;;;;;-148.88;44.31;75017.63;5036022;28;20029;-88
2023/03/17 10:06:32;;;;;;;4.22;2.55;;;;;;;-148.88;44.33;74985.13;5036151;28;20486;-89
2023/03/17 10:09:13;;;;;;;4.18;2.33;;;;;;;-148.88;44.01;74952.63;5036194;28;20060;-89
2023/03/17 10:11:46;;;;;;;4.25;2.47;;;;;;;-148.88;41.61;74977.00;5036499;28;20025;-89
2023/03/17 10:14:37;;;;;;;6.30;2.30;;;;;;;-148.88;41.69;74964.81;5036193;28;20075;-88
2023/03/17 10:17:25;;;;;;;4.38;2.30;;;;;;;-148.88;42.79;74920.16;5018325;28;20025;-88
2023/03/17 10:20:10;;;;;;;6.40;2.03;;;;;;;-148.88;42.03;74883.59;5036275;28;20030;-88
2023/03/17 10:22:48;;;;;;;4.78;2.40;;;;;;;-148.88;41.90;74887.66;5019325;28;20171;-87
2023/03/17 10:25:20;;;;;;;4.75;2.33;;;;;;;-148.88;42.04;74895.78;5036661;28;20091;-88
2023/03/17 10:28:03;;;;;;;5.45;2.20;;;;;;;-148.88;42.49;74875.47;5036024;28;20032;-88
2023/03/17 10:30:32;;;;;;;4.47;2.10;;;;;;;-148.88;42.03;74845.00;5018557;28;20526;-88
2023/03/17 10:33:00;;;;;;;4.20;2.35;;;;;;;-148.88;41.23;74830.78;5035975;28;20480;-88
2023/03/17 10:35:26;;;;;;;4.63;2.40;;;;;;;-148.88;41.00;74826.72;5017978;28;20019;-90
2023/03/17 10:37:52;;;;;;;4.70;2.70;;;;;;;-148.88;40.38;74853.13;5018407;28;20482;-89
2023/03/17 10:40:27;;;;;;;5.38;2.58;;;;;;;-148.88;40.41;74857.19;5017918;28;20025;-88
2023/03/17 10:43:07;;;;;;;4.93;2.38;;;;;;;-148.88;41.05;74855.16;5035623;28;20037;-88
2023/03/17 10:45:37;;;;;;;4.55;2.20;;;;;;;-148.88;41.51;74834.84;5018529;28;20026;-88
2023/03/17 10:48:08;;;;;;;4.28;2.65;;;;;;;-148.88;40.28;74838.91;5035727;28;20021;-87
2023/03/17 10:50:36;;;;;;;3.97;2.17;;;;;;;-148.88;40.82;74824.69;5017842;28;20027;-88
2023/03/17 10:53:01;;;;;;;5.28;2.22;;;;;;;-148.88;40.70;74784.09;5035360;28;20025;-89
2023/03/17 10:55:48;;;;;;;4.87;2.30;;;;;;;-148.88;40.34;74753.63;5035379;28;20021;-89
2023/03/17 10:58:17;;;;;;;5.00;2.67;;;;;;;-148.88;39.55;74765.81;5017586;28;20760;-88
2023/03/17 11:00:55;;;;;;;4.15;2.50;;;;;;;-148.88;40.42;74743.47;5017270;28;20454;-89
2023/03/17 11:03:33;;;;;;;3.85;2.10;;;;;;;-148.88;39.74;74727.22;5036894;28;20021;-87
2023/03/17 11:06:11;;;;;;;3.55;2.30;;;;;;;-148.88;39.90;74753.63;5017674;28;20114;-90
2023/03/17 11:08:52;;;;;;;5.38;2.78;;;;;;;-148.88;39.79;74745.50;5035497;28;20053;-87
2023/03/17 11:11:28;;;;;;;5.18;2.40;;;;;;;-148.88;40.64;74763.78;5036167;28;20586;-88
2023/03/17 11:14:03;;;;;;;4.53;2.72;;;;;;;-148.88;39.54;74753.63;5035650;28;20470;-89
2023/03/17 11:16:33;;;;;;;4.75;2.75;;;;;;;-148.88;40.63;74733.31;5035201;28;20029;-89
2023/03/17 11:19:01;;;;;;;4.20;2.63;;;;;;;-148.88;39.93;74747.53;5035135;28;20037;-88